createdAt,value
2022-10-04T00:01:22.599Z,9.54
2022-10-04T00:04:01.295Z,9.54
2022-10-04T00:06:27.686Z,9.57
2022-10-04T00:08:58.061Z,9.56
2022-10-04T00:11:35.501Z,9.55
2022-10-04T00:14:06.660Z,9.55
2022-10-04T00:16:34.864Z,9.52
2022-10-04T00:19:21.431Z,9.53
2022-10-04T00:22:12.410Z,9.51
2022-10-04T00:24:58.590Z,9.47
2022-10-04T00:27:26.069Z,9.52
2022-10-04T00:30:04.296Z,9.48
2022-10-04T00:32:30.569Z,9.42
2022-10-04T00:34:58.009Z,9.47
2022-10-04T00:37:25.452Z,9.43
2022-10-04T00:40:05.097Z,9.47
2022-10-04T00:42:36.211Z,9.53
2022-10-04T00:45:07.380Z,9.56
2022-10-04T00:47:56.309Z,9.66
2022-10-04T00:50:36.893Z,9.74
2022-10-04T00:53:10.510Z,9.76
2022-10-04T00:55:46.914Z,9.81
2022-10-04T00:58:18.776Z,9.85
2022-10-04T01:00:48.156Z,9.88
2022-10-04T01:03:18.465Z,9.93
2022-10-04T01:05:47.271Z,9.95
2022-10-04T01:08:22.801Z,9.97
2022-10-04T01:10:55.637Z,9.95
2022-10-04T01:13:30.195Z,9.94
2022-10-04T01:16:17.229Z,9.92
2022-10-04T01:18:43.691Z,9.91
2022-10-04T01:21:22.171Z,9.89
2022-10-04T01:23:48.422Z,9.88
2022-10-04T01:26:29.081Z,9.87
2022-10-04T01:28:55.307Z,9.87
2022-10-04T01:31:22.150Z,9.90
2022-10-04T01:33:48.547Z,9.92
2022-10-04T01:36:15.115Z,9.92
2022-10-04T01:38:41.617Z,9.93
2022-10-04T01:41:08.549Z,9.92
2022-10-04T01:43:37.736Z,9.94
2022-10-04T01:46:07.454Z,9.89
2022-10-04T01:48:36.599Z,9.86
2022-10-04T01:51:12.963Z,9.84
2022-10-04T01:53:45.545Z,9.82
2022-10-04T01:56:17.632Z,9.79
2022-10-04T01:58:46.743Z,9.77
2022-10-04T02:01:34.740Z,9.76
2022-10-04T02:04:04.887Z,9.75
2022-10-04T02:06:36.019Z,9.71
2022-10-04T02:09:07.582Z,9.72
2022-10-04T02:11:37.525Z,9.73
2022-10-04T02:14:05.377Z,9.73
2022-10-04T02:16:35.794Z,9.71
2022-10-04T02:19:03.503Z,9.72
2022-10-04T02:21:30.410Z,9.70
2022-10-04T02:23:57.200Z,9.69
2022-10-04T02:26:23.553Z,9.69
2022-10-04T02:28:51.103Z,9.71
2022-10-04T02:31:39.566Z,9.70
2022-10-04T02:34:06.024Z,9.73
2022-10-04T02:36:33.229Z,9.74
2022-10-04T02:39:00.733Z,9.77
2022-10-04T02:41:35.651Z,9.74
2022-10-04T02:44:01.871Z,9.76
2022-10-04T02:46:31.547Z,9.78
2022-10-04T02:49:00.084Z,9.77
2022-10-04T02:51:49.499Z,9.78
2022-10-04T02:54:18.594Z,9.79
2022-10-04T02:56:44.977Z,9.79
2022-10-04T02:59:16.340Z,9.81
2022-10-04T03:01:56.310Z,9.80
2022-10-04T03:04:24.065Z,9.83
2022-10-04T03:06:50.545Z,9.84
2022-10-04T03:09:18.851Z,9.86
2022-10-04T03:11:46.579Z,9.85
2022-10-04T03:14:15.865Z,9.88
2022-10-04T03:16:43.434Z,9.90
2022-10-04T03:19:10.806Z,9.91
2022-10-04T03:21:38.392Z,9.93
2022-10-04T03:24:06.174Z,9.95
2022-10-04T03:26:38.818Z,9.96
2022-10-04T03:29:10.118Z,9.95
2022-10-04T03:31:50.012Z,9.96
2022-10-04T03:34:21.295Z,9.97
2022-10-04T03:36:49.231Z,9.98
2022-10-04T03:39:20.781Z,9.98
2022-10-04T03:41:47.615Z,9.98
2022-10-04T03:44:16.223Z,9.99
2022-10-04T03:46:43.685Z,9.98
2022-10-04T03:49:11.513Z,9.99
2022-10-04T03:51:38.318Z,9.97
2022-10-04T03:54:16.708Z,9.96
2022-10-04T03:56:42.996Z,9.96
2022-10-04T03:59:13.913Z,9.98
2022-10-04T04:01:43.970Z,9.98
2022-10-04T04:04:19.008Z,9.99
2022-10-04T04:06:48.370Z,9.99
2022-10-04T04:09:19.393Z,9.99
2022-10-04T04:11:48.911Z,9.97
2022-10-04T04:14:20.066Z,9.97
2022-10-04T04:16:47.031Z,9.96
2022-10-04T04:19:15.596Z,9.99
2022-10-04T04:21:42.784Z,9.95
2022-10-04T04:24:23.776Z,9.97
2022-10-04T04:26:53.110Z,9.96
2022-10-04T04:29:42.696Z,9.95
2022-10-04T04:32:15.834Z,9.94
2022-10-04T04:34:49.922Z,9.92
2022-10-04T04:37:16.211Z,9.90
2022-10-04T04:39:44.876Z,9.90
2022-10-04T04:42:16.414Z,9.92
2022-10-04T04:44:53.766Z,9.93
2022-10-04T04:47:33.106Z,9.91
2022-10-04T04:50:04.077Z,9.91
2022-10-04T04:52:31.713Z,9.90
2022-10-04T04:54:58.303Z,9.91
2022-10-04T04:57:24.999Z,9.89
2022-10-04T04:59:56.951Z,9.89
2022-10-04T05:02:36.762Z,9.86
2022-10-04T05:05:21.351Z,9.82
2022-10-04T05:07:47.629Z,9.82
2022-10-04T05:10:30.218Z,9.80
2022-10-04T05:12:56.916Z,9.79
2022-10-04T05:15:23.468Z,9.78
2022-10-04T05:17:49.767Z,9.77
2022-10-04T05:20:16.162Z,9.77
2022-10-04T05:22:45.859Z,9.75
2022-10-04T05:25:21.772Z,9.72
2022-10-04T05:27:49.795Z,9.71
2022-10-04T05:30:33.147Z,9.67
2022-10-04T05:33:04.693Z,9.69
2022-10-04T05:35:41.745Z,9.69
2022-10-04T05:38:16.711Z,9.72
2022-10-04T05:41:06.685Z,9.72
2022-10-04T05:43:53.263Z,9.72
2022-10-04T05:46:26.900Z,9.74
2022-10-04T05:48:54.962Z,9.74
2022-10-04T05:51:26.588Z,9.74
2022-10-04T05:53:54.239Z,9.77
2022-10-04T05:56:23.501Z,9.81
2022-10-04T05:58:49.741Z,9.85
2022-10-04T06:01:42.931Z,9.88
2022-10-04T06:04:09.401Z,9.93
2022-10-04T06:06:40.992Z,9.96
2022-10-04T06:09:21.681Z,9.96
2022-10-04T06:12:06.008Z,9.99
2022-10-04T06:14:41.619Z,10.01
2022-10-04T06:17:21.374Z,10.00
2022-10-04T06:19:55.179Z,10.03
2022-10-04T06:22:22.690Z,10.05
2022-10-04T06:24:56.262Z,10.09
2022-10-04T06:27:33.300Z,10.09
2022-10-04T06:30:02.611Z,10.12
2022-10-04T06:32:28.847Z,10.12
2022-10-04T06:35:07.324Z,10.18
2022-10-04T06:37:33.597Z,10.21
2022-10-04T06:40:06.122Z,10.24
2022-10-04T06:42:39.141Z,10.29
2022-10-04T06:45:21.253Z,10.34
2022-10-04T06:48:02.095Z,10.35
2022-10-04T06:50:50.474Z,10.35
2022-10-04T06:53:35.281Z,10.37
2022-10-04T06:56:07.575Z,10.41
2022-10-04T06:58:43.032Z,10.45
2022-10-04T07:01:19.278Z,10.49
2022-10-04T07:03:50.535Z,10.53
2022-10-04T07:06:22.968Z,10.55
2022-10-04T07:08:50.974Z,10.56
2022-10-04T07:11:23.955Z,10.59
2022-10-04T07:14:08.746Z,10.62
2022-10-04T07:16:43.294Z,10.67
2022-10-04T07:19:28.321Z,10.70
2022-10-04T07:21:54.550Z,10.74
2022-10-04T07:24:26.933Z,10.72
2022-10-04T07:26:54.932Z,10.77
2022-10-04T07:29:28.118Z,10.83
2022-10-04T07:32:07.052Z,10.89
2022-10-04T07:34:36.752Z,10.92
2022-10-04T07:37:12.577Z,11.05
2022-10-04T07:39:48.054Z,11.16
2022-10-04T07:42:32.755Z,11.29
2022-10-04T07:45:10.866Z,11.43
2022-10-04T07:47:37.206Z,11.46
2022-10-04T07:50:22.058Z,11.52
2022-10-04T07:53:09.532Z,11.50
2022-10-04T07:55:38.974Z,11.58
2022-10-04T07:58:24.030Z,11.65
2022-10-04T08:01:07.296Z,11.73
2022-10-04T08:03:57.275Z,11.74
2022-10-04T08:06:33.558Z,11.81
2022-10-04T08:09:16.987Z,11.89
2022-10-04T08:11:50.004Z,11.96
2022-10-04T08:14:19.256Z,12.01
2022-10-04T08:17:21.272Z,11.99
2022-10-04T08:19:53.419Z,11.96
2022-10-04T08:22:38.507Z,11.93
2022-10-04T08:25:14.989Z,11.94
2022-10-04T08:28:12.476Z,12.04
2022-10-04T08:30:49.087Z,12.04
2022-10-04T08:33:24.308Z,12.06
2022-10-04T08:36:02.602Z,12.00
2022-10-04T08:38:36.296Z,12.06
2022-10-04T08:41:15.059Z,12.08
2022-10-04T08:43:59.779Z,12.14
2022-10-04T08:46:26.092Z,12.16
2022-10-04T08:49:10.759Z,12.21
2022-10-04T08:51:55.698Z,12.24
2022-10-04T08:54:43.821Z,12.32
2022-10-04T08:57:22.314Z,12.38
2022-10-04T08:59:48.538Z,12.48
2022-10-04T09:02:17.946Z,12.60
2022-10-04T09:05:02.622Z,12.70
2022-10-04T09:07:49.366Z,12.80
2022-10-04T09:10:15.609Z,12.94
2022-10-04T09:12:44.793Z,13.06
2022-10-04T09:15:11.044Z,13.05
2022-10-04T09:17:42.077Z,13.16
2022-10-04T09:20:39.403Z,13.15
2022-10-04T09:23:25.215Z,13.26
2022-10-04T09:26:00.638Z,13.30
2022-10-04T09:28:29.967Z,13.35
2022-10-04T09:31:06.279Z,13.39
2022-10-04T09:33:41.653Z,13.41
2022-10-04T09:36:28.622Z,13.48
2022-10-04T09:39:29.431Z,13.49
2022-10-04T09:42:03.211Z,13.60
2022-10-04T09:44:29.450Z,13.63
2022-10-04T09:47:24.871Z,13.62
2022-10-04T09:50:10.911Z,13.72
2022-10-04T09:52:37.185Z,13.79
2022-10-04T09:55:09.919Z,13.92
2022-10-04T09:57:45.027Z,14.00
2022-10-04T10:00:11.255Z,14.08
2022-10-04T10:02:38.672Z,14.11
2022-10-04T10:05:23.716Z,14.18
2022-10-04T10:07:53.360Z,14.15
2022-10-04T10:10:48.190Z,14.00
2022-10-04T10:13:39.164Z,13.96
2022-10-04T10:16:05.714Z,13.83
2022-10-04T10:18:31.965Z,13.96
2022-10-04T10:21:10.451Z,14.07
2022-10-04T10:23:50.657Z,14.17
2022-10-04T10:26:17.040Z,14.23
2022-10-04T10:28:58.737Z,14.32
2022-10-04T10:31:51.235Z,14.46
2022-10-04T10:34:36.163Z,14.54
2022-10-04T10:37:38.059Z,14.61
2022-10-04T10:40:28.184Z,14.77
2022-10-04T10:43:09.456Z,14.88
2022-10-04T10:45:59.437Z,15.04
2022-10-04T10:48:35.569Z,15.25
2022-10-04T10:51:10.874Z,15.52
2022-10-04T10:53:48.049Z,15.80
2022-10-04T10:56:32.544Z,16.14
2022-10-04T10:59:17.212Z,17.00
2022-10-04T11:01:55.722Z,18.00
2022-10-04T11:04:37.077Z,19.03
2022-10-04T11:07:20.535Z,19.55
2022-10-04T11:09:46.812Z,19.80
2022-10-04T11:12:25.384Z,19.76
2022-10-04T11:14:54.472Z,19.77
2022-10-04T11:17:39.453Z,19.90
2022-10-04T11:20:15.509Z,20.25
2022-10-04T11:23:00.497Z,20.64
2022-10-04T11:25:50.653Z,21.02
2022-10-04T11:28:36.256Z,20.74
2022-10-04T11:31:11.648Z,19.58
2022-10-04T11:33:58.154Z,18.43
2022-10-04T11:36:50.604Z,17.73
2022-10-04T11:39:23.032Z,18.04
2022-10-04T11:42:14.023Z,17.90
2022-10-04T11:44:49.043Z,18.99
2022-10-04T11:47:18.055Z,20.15
2022-10-04T11:49:44.333Z,20.69
2022-10-04T11:52:25.963Z,20.81
2022-10-04T11:55:11.155Z,19.72
2022-10-04T11:57:48.172Z,18.51
2022-10-04T12:00:20.707Z,17.75
2022-10-04T12:03:07.852Z,17.21
2022-10-04T12:05:49.844Z,16.85
2022-10-04T12:08:33.265Z,16.83
2022-10-04T12:10:59.557Z,17.38
2022-10-04T12:13:25.821Z,18.03
2022-10-04T12:16:05.269Z,19.02
2022-10-04T12:18:46.618Z,20.08
2022-10-04T12:21:28.795Z,20.69
2022-10-04T12:23:58.055Z,20.63
2022-10-04T12:26:39.662Z,20.48
2022-10-04T12:29:24.200Z,21.15
2022-10-04T12:31:53.680Z,20.90
2022-10-04T12:34:27.822Z,20.39
2022-10-04T12:37:00.184Z,19.64
2022-10-04T12:39:32.575Z,18.90
2022-10-04T12:42:18.740Z,18.37
2022-10-04T12:44:57.233Z,18.40
2022-10-04T12:47:56.042Z,18.10
2022-10-04T12:50:40.987Z,18.51
2022-10-04T12:53:46.288Z,19.19
2022-10-04T12:56:21.735Z,19.86
2022-10-04T12:59:01.200Z,19.95
2022-10-04T13:01:27.480Z,19.69
2022-10-04T13:03:53.726Z,19.35
2022-10-04T13:06:24.121Z,18.82
2022-10-04T13:09:11.091Z,18.10
2022-10-04T13:12:06.589Z,17.70
2022-10-04T13:14:38.877Z,17.64
2022-10-04T13:17:32.964Z,17.70
2022-10-04T13:20:19.383Z,17.73
2022-10-04T13:23:00.609Z,17.79
2022-10-04T13:25:38.008Z,17.57
2022-10-04T13:28:24.659Z,17.57
2022-10-04T13:30:58.518Z,17.75
2022-10-04T13:33:26.411Z,17.66
2022-10-04T13:36:08.812Z,17.31
2022-10-04T13:38:55.938Z,17.11
2022-10-04T13:41:40.760Z,16.96
2022-10-04T13:44:09.683Z,16.93
2022-10-04T13:46:47.119Z,16.83
2022-10-04T13:49:19.130Z,16.74
2022-10-04T13:52:24.333Z,16.85
2022-10-04T13:55:35.475Z,16.86
2022-10-04T13:58:34.180Z,16.80
2022-10-04T14:01:48.129Z,16.66
2022-10-04T14:04:34.443Z,16.66
2022-10-04T14:07:19.574Z,16.71
2022-10-04T14:09:59.615Z,16.54
2022-10-04T14:13:21.632Z,16.52
2022-10-04T14:16:06.375Z,16.62
2022-10-04T14:19:09.569Z,16.67
2022-10-04T14:22:07.354Z,16.61
2022-10-04T14:24:39.845Z,16.77
2022-10-04T14:27:23.446Z,17.07
2022-10-04T14:30:11.768Z,17.46
2022-10-04T14:32:56.447Z,17.81
2022-10-04T14:35:44.499Z,17.75
2022-10-04T14:38:24.550Z,17.60
2022-10-04T14:41:05.033Z,17.46
2022-10-04T14:43:46.560Z,17.23
2022-10-04T14:46:22.744Z,17.11
2022-10-04T14:48:49.061Z,16.97
2022-10-04T14:51:19.331Z,16.87
2022-10-04T14:54:00.340Z,16.67
2022-10-04T14:56:35.119Z,16.66
2022-10-04T14:59:01.377Z,16.63
2022-10-04T15:01:28.528Z,16.52
2022-10-04T15:03:58.033Z,16.46
2022-10-04T15:06:40.177Z,16.41
2022-10-04T15:09:52.491Z,16.42
2022-10-04T15:13:08.799Z,16.36
2022-10-04T15:15:31.959Z,16.15
2022-10-04T15:18:03.358Z,16.02
2022-10-04T15:20:32.349Z,15.94
2022-10-04T15:23:03.979Z,15.87
2022-10-04T15:25:38.201Z,15.77
2022-10-04T15:28:08.068Z,15.67
2022-10-04T15:30:49.319Z,15.61
2022-10-04T15:33:20.484Z,15.56
2022-10-04T15:35:50.703Z,15.53
2022-10-04T15:38:16.938Z,15.48
2022-10-04T15:40:58.337Z,15.42
2022-10-04T15:43:27.360Z,15.36
2022-10-04T15:46:12.792Z,15.29
2022-10-04T15:48:56.409Z,15.20
2022-10-04T15:51:42.435Z,15.10
2022-10-04T15:54:30.401Z,15.02
2022-10-04T15:57:00.422Z,14.93
2022-10-04T15:59:32.435Z,14.89
2022-10-04T16:02:24.364Z,14.83
2022-10-04T16:05:14.711Z,14.74
2022-10-04T16:07:59.837Z,14.68
2022-10-04T16:10:28.697Z,14.59
2022-10-04T16:13:01.352Z,14.54
2022-10-04T16:15:40.733Z,14.50
2022-10-04T16:18:16.727Z,14.47
2022-10-04T16:21:01.545Z,14.41
2022-10-04T16:23:37.621Z,14.36
2022-10-04T16:26:10.434Z,14.27
2022-10-04T16:28:37.214Z,14.19
2022-10-04T16:31:22.165Z,14.12
2022-10-04T16:33:56.243Z,14.01
2022-10-04T16:36:25.462Z,13.96
2022-10-04T16:39:12.413Z,13.86
2022-10-04T16:41:57.321Z,13.81
2022-10-04T16:44:49.070Z,13.72
2022-10-04T16:47:38.153Z,13.66
2022-10-04T16:50:08.403Z,13.55
2022-10-04T16:52:34.630Z,13.48
2022-10-04T16:55:03.900Z,13.37
2022-10-04T16:57:30.413Z,13.28
2022-10-04T17:00:07.320Z,13.20
2022-10-04T17:02:33.656Z,13.13
2022-10-04T17:05:18.604Z,13.07
2022-10-04T17:08:04.731Z,13.04
2022-10-04T17:10:34.392Z,13.03
2022-10-04T17:13:19.301Z,12.98
2022-10-04T17:15:50.832Z,12.94
2022-10-04T17:18:19.780Z,12.93
2022-10-04T17:20:50.290Z,12.93
2022-10-04T17:23:16.525Z,12.92
2022-10-04T17:25:47.440Z,12.89
2022-10-04T17:28:27.388Z,12.84
2022-10-04T17:30:58.916Z,12.84
2022-10-04T17:33:37.823Z,12.80
2022-10-04T17:36:14.899Z,12.74
2022-10-04T17:38:51.261Z,12.72
2022-10-04T17:41:20.335Z,12.69
2022-10-04T17:43:56.077Z,12.66
2022-10-04T17:46:36.810Z,12.69
2022-10-04T17:49:41.044Z,12.65
2022-10-04T17:52:33.453Z,12.62
2022-10-04T17:55:18.575Z,12.58
2022-10-04T17:57:54.184Z,12.54
2022-10-04T18:00:25.131Z,12.50
2022-10-04T18:03:10.007Z,12.44
2022-10-04T18:05:42.392Z,12.39
2022-10-04T18:08:17.818Z,12.40
2022-10-04T18:10:59.402Z,12.36
2022-10-04T18:13:25.639Z,12.34
2022-10-04T18:15:55.074Z,12.30
2022-10-04T18:18:23.440Z,12.27
2022-10-04T18:21:08.702Z,12.23
2022-10-04T18:23:36.505Z,12.21
2022-10-04T18:26:10.814Z,12.19
2022-10-04T18:28:37.313Z,12.20
2022-10-04T18:31:19.912Z,12.19
2022-10-04T18:33:50.637Z,12.19
2022-10-04T18:36:23.452Z,12.25
2022-10-04T18:39:08.336Z,12.19
2022-10-04T18:41:54.076Z,12.15
2022-10-04T18:44:23.287Z,12.17
2022-10-04T18:46:54.725Z,12.18
2022-10-04T18:49:25.401Z,12.18
2022-10-04T18:51:57.525Z,12.19
2022-10-04T18:54:30.732Z,12.19
2022-10-04T18:57:24.125Z,12.22
2022-10-04T19:00:32.435Z,12.25
2022-10-04T19:02:58.756Z,12.20
2022-10-04T19:05:31.482Z,12.19
2022-10-04T19:08:07.575Z,12.17
2022-10-04T19:10:40.279Z,12.13
2022-10-04T19:13:11.086Z,12.11
2022-10-04T19:15:49.328Z,12.07
2022-10-04T19:18:33.962Z,12.02
2022-10-04T19:21:03.287Z,11.96
2022-10-04T19:23:36.890Z,11.93
2022-10-04T19:26:32.601Z,11.91
2022-10-04T19:29:02.080Z,11.91
2022-10-04T19:31:42.572Z,11.91
2022-10-04T19:34:14.398Z,11.89
2022-10-04T19:36:51.870Z,11.87
2022-10-04T19:39:18.143Z,11.82
2022-10-04T19:41:47.722Z,11.77
2022-10-04T19:44:28.180Z,11.76
2022-10-04T19:47:04.448Z,11.74
2022-10-04T19:49:33.438Z,11.73
2022-10-04T19:52:20.241Z,11.72
2022-10-04T19:54:50.812Z,11.70
2022-10-04T19:57:19.316Z,11.69
2022-10-04T19:59:48.374Z,11.68
2022-10-04T20:02:14.862Z,11.69
2022-10-04T20:04:43.581Z,11.70
2022-10-04T20:07:26.977Z,11.72
2022-10-04T20:09:55.220Z,11.71
2022-10-04T20:12:32.919Z,11.70
2022-10-04T20:15:17.560Z,11.73
2022-10-04T20:17:45.488Z,11.72
2022-10-04T20:20:34.754Z,11.70
2022-10-04T20:23:01.013Z,11.70
2022-10-04T20:25:45.817Z,11.73
2022-10-04T20:28:24.149Z,11.76
2022-10-04T20:30:52.108Z,11.79
2022-10-04T20:33:33.605Z,11.84
2022-10-04T20:36:01.056Z,11.86
2022-10-04T20:38:43.919Z,11.87
2022-10-04T20:41:28.390Z,11.88
2022-10-04T20:44:01.231Z,11.93
2022-10-04T20:46:31.611Z,11.99
2022-10-04T20:48:58.176Z,12.02
2022-10-04T20:51:27.751Z,12.05
2022-10-04T20:53:54.043Z,12.08
2022-10-04T20:56:38.739Z,12.08
2022-10-04T20:59:05.056Z,12.07
2022-10-04T21:01:35.645Z,12.09
2022-10-04T21:04:17.219Z,12.05
2022-10-04T21:06:53.426Z,12.03
2022-10-04T21:09:21.552Z,12.03
2022-10-04T21:11:49.863Z,12.04
2022-10-04T21:14:23.353Z,12.07
2022-10-04T21:16:51.289Z,12.11
2022-10-04T21:19:30.347Z,12.15
2022-10-04T21:21:57.417Z,12.18
2022-10-04T21:24:43.682Z,12.19
2022-10-04T21:27:10.935Z,12.19
2022-10-04T21:29:37.535Z,12.19
2022-10-04T21:32:04.164Z,12.18
2022-10-04T21:34:51.772Z,12.18
2022-10-04T21:37:17.252Z,12.17
2022-10-04T21:39:43.847Z,12.17
2022-10-04T21:42:10.617Z,12.17
2022-10-04T21:44:37.290Z,12.18
2022-10-04T21:47:03.571Z,12.17
2022-10-04T21:49:29.849Z,12.15
2022-10-04T21:51:56.115Z,12.15
2022-10-04T21:54:22.388Z,12.14
2022-10-04T21:56:49.248Z,12.15
2022-10-04T21:59:15.655Z,12.18
2022-10-04T22:01:41.914Z,12.18
2022-10-04T22:04:08.169Z,12.21
2022-10-04T22:06:34.496Z,12.22
2022-10-04T22:09:00.773Z,12.24
2022-10-04T22:11:27.057Z,12.24
2022-10-04T22:13:53.318Z,12.24
2022-10-04T22:16:19.641Z,12.24
2022-10-04T22:18:46.006Z,12.24
2022-10-04T22:21:12.264Z,12.27
2022-10-04T22:23:43.005Z,12.30
2022-10-04T22:26:13.930Z,12.31
2022-10-04T22:28:51.027Z,12.30
2022-10-04T22:31:22.111Z,12.31
2022-10-04T22:33:49.436Z,12.32
2022-10-04T22:36:15.787Z,12.31
2022-10-04T22:38:44.424Z,12.32
2022-10-04T22:41:12.487Z,12.35
2022-10-04T22:43:39.006Z,12.38
2022-10-04T22:46:05.551Z,12.39
2022-10-04T22:48:31.938Z,12.42
2022-10-04T22:50:58.202Z,12.44
2022-10-04T22:53:24.572Z,12.44
2022-10-04T22:55:51.649Z,12.44
2022-10-04T22:58:18.384Z,12.44
2022-10-04T23:00:44.843Z,12.44
2022-10-04T23:03:18.058Z,12.47
2022-10-04T23:05:45.237Z,12.51
2022-10-04T23:08:11.531Z,12.52
2022-10-04T23:10:37.789Z,12.54
2022-10-04T23:13:04.013Z,12.56
2022-10-04T23:15:30.297Z,12.56
2022-10-04T23:17:57.074Z,12.58
2022-10-04T23:20:23.739Z,12.58
2022-10-04T23:22:52.713Z,12.59
2022-10-04T23:25:27.075Z,12.58
2022-10-04T23:27:54.808Z,12.57
2022-10-04T23:30:21.905Z,12.57
2022-10-04T23:32:49.316Z,12.53
2022-10-04T23:35:20.070Z,12.51
2022-10-04T23:37:46.893Z,12.46
2022-10-04T23:40:15.327Z,12.45
2022-10-04T23:42:41.665Z,12.43
2022-10-04T23:45:17.143Z,12.40
2022-10-04T23:47:44.342Z,12.40
2022-10-04T23:50:21.808Z,12.37
2022-10-04T23:52:49.249Z,12.37
2022-10-04T23:55:26.981Z,12.40
2022-10-04T23:57:53.216Z,12.40
